Time;durP1;ratioP1;P1;durP2;ratioP2;P2;SDS_P1;SDS_P2;PMS_P1;PMS_P2;Temp;Humidity;BMP_temperature;BMP_pressure;BME280_temperature;BME280_humidity;BME280_pressure;Samples;Min_cycle;Max_cycle;Signal;HPM_P1;HPM_P2
2022/08/15 00:01:00;;;;;;;12.82;8.18;;;;;;;26.35;48.82;100280.00;4959440;28;20031;-49
2022/08/15 00:03:31;;;;;;;10.15;7.90;;;;;;;26.29;49.04;100270.59;4975812;28;20050;-54
2022/08/15 00:06:02;;;;;;;10.45;8.35;;;;;;;26.26;49.21;100273.38;4953442;28;20034;-54
2022/08/15 00:08:30;;;;;;;11.23;7.45;;;;;;;26.24;49.35;100283.13;4958418;28;20498;-55
2022/08/15 00:11:02;;;;;;;13.63;9.82;;;;;;;26.20;50.47;100279.78;4962166;28;20031;-55
2022/08/15 00:13:29;;;;;;;11.75;9.82;;;;;;;26.11;50.98;100271.44;4957845;28;20117;-50
2022/08/15 00:15:55;;;;;;;10.68;9.57;;;;;;;26.07;51.01;100276.00;4961534;28;20035;-55
2022/08/15 00:18:24;;;;;;;14.90;9.50;;;;;;;26.03;50.86;100292.88;4958623;28;20046;-55
2022/08/15 00:20:50;;;;;;;;;;;;;;;26.30;49.51;100303.09;4957340;28;20015;-52
2022/08/15 00:23:18;;;;;;;13.43;10.50;;;;;;;25.99;51.16;100304.47;4959627;28;20015;-54
2022/08/15 00:25:49;;;;;;;11.88;10.70;;;;;;;25.92;51.25;100289.88;4959030;28;20031;-54
2022/08/15 00:28:15;;;;;;;13.50;10.43;;;;;;;25.83;51.16;100293.75;4956438;28;20035;-52
2022/08/15 00:30:41;;;;;;;11.07;10.00;;;;;;;25.79;51.31;100299.25;4956358;28;20486;-50
2022/08/15 00:33:07;;;;;;;10.93;9.88;;;;;;;25.78;51.61;100279.06;4959722;28;20479;-53
2022/08/15 00:35:36;;;;;;;11.38;9.82;;;;;;;25.79;51.34;100272.91;4960965;28;20030;-54
2022/08/15 00:38:13;;;;;;;13.85;10.20;;;;;;;25.79;50.74;100292.19;4961884;28;20047;-55
2022/08/15 00:43:26;;;;;;;13.35;9.73;;;;;;;25.70;51.52;100292.53;4961404;28;20057;-55
2022/08/15 00:45:52;;;;;;;10.45;9.30;;;;;;;25.68;51.47;100289.13;4955915;28;20488;-51
2022/08/15 00:51:06;;;;;;;12.50;9.55;;;;;;;25.66;51.71;100281.31;4956236;28;20112;-51
2022/08/15 00:53:31;;;;;;;13.50;9.27;;;;;;;25.64;51.61;100284.91;4954929;28;20031;-52
2022/08/15 00:55:57;;;;;;;10.65;9.60;;;;;;;25.62;51.43;100279.72;4955939;28;20039;-52
2022/08/15 00:58:23;;;;;;;13.07;9.00;;;;;;;25.61;51.27;100287.69;4959377;28;20084;-54
2022/08/15 01:00:49;;;;;;;9.95;8.95;;;;;;;25.63;51.45;100281.44;4957585;28;20030;-52
2022/08/15 01:03:21;;;;;;;11.80;9.43;;;;;;;25.62;51.40;100284.13;4958713;28;20566;-55
2022/08/15 01:05:49;;;;;;;9.98;8.93;;;;;;;25.54;51.60;100279.22;4958027;28;20459;-54
2022/08/15 01:08:16;;;;;;;11.02;8.80;;;;;;;25.50;51.65;100268.88;4957933;28;20494;-54
2022/08/15 01:10:43;;;;;;;11.88;9.10;;;;;;;25.52;51.57;100272.28;4956191;28;20077;-51
2022/08/15 01:13:09;;;;;;;10.27;9.00;;;;;;;25.49;51.36;100272.44;4952087;28;20042;-54
2022/08/15 01:15:35;;;;;;;12.57;9.27;;;;;;;25.50;51.85;100277.63;4958956;28;20518;-54
2022/08/15 01:18:01;;;;;;;10.13;8.48;;;;;;;25.45;51.70;100282.22;4959026;28;20035;-55
2022/08/15 01:20:30;;;;;;;11.10;8.75;;;;;;;25.50;51.75;100274.13;4960215;28;20070;-54
2022/08/15 01:23:34;;;;;;;11.52;9.60;;;;;;;25.52;51.17;100274.91;4959235;28;20043;-55
2022/08/15 01:26:06;;;;;;;9.98;8.60;;;;;;;25.40;51.94;100271.88;4955544;28;20121;-54
2022/08/15 01:28:35;;;;;;;11.05;8.30;;;;;;;25.37;51.83;100272.03;4960389;28;20039;-55
2022/08/15 01:31:08;;;;;;;12.10;8.82;;;;;;;25.35;52.03;100271.22;4957436;28;20474;-56
2022/08/15 01:33:42;;;;;;;10.43;8.80;;;;;;;25.37;51.57;100277.28;4958990;28;20038;-50
2022/08/15 01:36:09;;;;;;;9.25;8.35;;;;;;;25.32;51.82;100275.78;4959457;28;20871;-54
2022/08/15 01:38:47;;;;;;;10.45;8.43;;;;;;;25.31;51.25;100264.38;4956879;28;20027;-52
2022/08/15 01:41:24;;;;;;;11.10;8.52;;;;;;;25.30;50.80;100265.31;4959599;28;20681;-54
2022/08/15 01:43:58;;;;;;;11.02;7.78;;;;;;;25.26;50.47;100258.47;4958466;28;20031;-52
2022/08/15 01:46:31;;;;;;;10.05;8.18;;;;;;;25.20;50.29;100261.34;4954102;28;20053;-51
2022/08/15 01:49:08;;;;;;;11.20;7.82;;;;;;;25.16;50.48;100261.53;4955694;28;20049;-51
2022/08/15 01:51:34;;;;;;;9.07;7.68;;;;;;;25.11;50.26;100270.47;4956646;28;20077;-54
2022/08/15 01:54:05;;;;;;;11.57;7.65;;;;;;;25.11;50.39;100266.97;4954543;28;20045;-54
2022/08/15 01:56:43;;;;;;;8.57;7.50;;;;;;;25.09;50.38;100267.06;4958346;28;20049;-50
2022/08/15 01:59:26;;;;;;;12.95;7.57;;;;;;;25.09;50.07;100267.06;4958168;28;20837;-54
2022/08/15 02:02:03;;;;;;;9.65;7.97;;;;;;;25.05;50.23;100268.09;4954664;28;20556;-54
2022/08/15 02:04:37;;;;;;;9.57;7.82;;;;;;;24.98;50.29;100263.13;4957804;28;20095;-54
2022/08/15 02:07:18;;;;;;;14.05;8.02;;;;;;;24.94;50.52;100272.94;4959582;28;20022;-54
2022/08/15 02:09:48;;;;;;;14.05;7.85;;;;;;;24.87;50.40;100282.84;4955482;28;21802;-54
2022/08/15 02:12:17;;;;;;;10.90;7.40;;;;;;;24.82;50.70;100289.19;4957280;28;20117;-53
2022/08/15 02:14:43;;;;;;;8.00;7.20;;;;;;;24.82;50.55;100284.78;4959199;28;20925;-52
2022/08/15 02:17:09;;;;;;;8.23;7.43;;;;;;;24.74;50.83;100284.22;4955870;28;20041;-54
2022/08/15 02:19:37;;;;;;;10.18;6.85;;;;;;;24.72;50.30;100278.19;4960141;28;20043;-55
2022/08/15 02:22:04;;;;;;;8.45;6.50;;;;;;;24.68;50.04;100279.19;4950269;28;20084;-54
2022/08/15 02:24:30;;;;;;;8.48;6.68;;;;;;;24.67;50.09;100281.91;4954904;28;20043;-53
2022/08/15 02:26:55;;;;;;;10.50;5.85;;;;;;;24.64;50.37;100289.94;4956489;28;20490;-55
2022/08/15 02:29:25;;;;;;;8.05;5.88;;;;;;;24.60;49.35;100290.03;4955080;28;20087;-55
2022/08/15 02:31:55;;;;;;;7.13;5.60;;;;;;;24.59;49.25;100287.47;4955435;28;20080;-54
2022/08/15 02:34:21;;;;;;;8.27;5.47;;;;;;;24.56;50.07;100288.44;4957646;28;20398;-54
2022/08/15 02:36:46;;;;;;;6.65;5.15;;;;;;;24.52;49.73;100286.84;4957120;28;20019;-55
2022/08/15 02:39:12;;;;;;;8.27;5.40;;;;;;;24.52;49.82;100284.22;4955785;28;20031;-55
2022/08/15 02:41:49;;;;;;;6.40;5.22;;;;;;;24.53;49.06;100285.94;4959172;28;20046;-51
2022/08/15 02:44:16;;;;;;;8.30;5.05;;;;;;;24.45;48.91;100281.88;4958069;28;20479;-54
2022/08/15 02:46:43;;;;;;;7.70;5.03;;;;;;;24.46;49.00;100284.47;4955654;28;20032;-51
2022/08/15 02:49:11;;;;;;;11.13;4.80;;;;;;;24.43;49.10;100281.94;4954286;28;20039;-52
2022/08/15 02:51:37;;;;;;;6.83;4.40;;;;;;;24.43;48.27;100287.19;4956405;28;20544;-54
2022/08/15 02:54:05;;;;;;;6.03;4.35;;;;;;;24.43;48.06;100289.81;4955844;28;20027;-53
2022/08/15 02:56:31;;;;;;;4.72;3.90;;;;;;;24.42;47.35;100295.13;4952682;28;20039;-52
2022/08/15 02:58:57;;;;;;;5.55;3.80;;;;;;;24.37;47.59;100289.19;4958503;28;20364;-52
2022/08/15 03:01:23;;;;;;;9.23;3.55;;;;;;;24.33;47.48;100291.94;4956891;28;20023;-54
2022/08/15 03:03:51;;;;;;;5.10;3.95;;;;;;;24.32;47.42;100294.59;4959754;28;20034;-53
2022/08/15 03:06:24;;;;;;;7.77;3.93;;;;;;;24.33;47.71;100297.19;4956374;28;20556;-54
2022/08/15 03:08:49;;;;;;;7.13;3.58;;;;;;;24.25;46.99;100296.59;4960967;28;20530;-53
2022/08/15 03:11:14;;;;;;;6.40;3.30;;;;;;;24.23;46.55;100294.94;4959043;28;20039;-52
2022/08/15 03:13:40;;;;;;;7.68;3.20;;;;;;;24.21;46.36;100291.53;4958597;28;20039;-55
2022/08/15 03:16:09;;;;;;;4.78;3.05;;;;;;;24.17;46.29;100288.16;4959917;28;20039;-52
2022/08/15 03:18:36;;;;;;;6.47;3.35;;;;;;;24.17;46.55;100285.53;4959376;28;20376;-55
2022/08/15 03:21:05;;;;;;;4.47;3.00;;;;;;;24.16;46.56;100278.56;4958044;28;20546;-50
2022/08/15 03:23:32;;;;;;;5.90;3.22;;;;;;;24.12;45.90;100284.81;4960887;28;20117;-53
2022/08/15 03:25:59;;;;;;;5.95;3.00;;;;;;;24.10;46.26;100285.81;4961512;28;20467;-54
2022/08/15 03:28:28;;;;;;;5.88;3.00;;;;;;;24.04;46.27;100284.28;4956977;28;20048;-53
2022/08/15 03:30:55;;;;;;;6.97;2.85;;;;;;;24.02;46.36;100289.56;4958290;28;20030;-52
2022/08/15 03:33:20;;;;;;;5.78;3.13;;;;;;;24.00;46.81;100287.91;4958051;28;20118;-52
2022/08/15 03:35:48;;;;;;;4.50;2.67;;;;;;;23.96;46.59;100295.03;4958681;28;20423;-55
2022/08/15 03:38:14;;;;;;;5.85;3.20;;;;;;;23.95;46.67;100297.72;4958626;28;20022;-55
2022/08/15 03:40:42;;;;;;;5.20;3.20;;;;;;;23.96;47.31;100295.03;4957372;28;20096;-54
2022/08/15 03:43:14;;;;;;;6.28;3.13;;;;;;;23.92;46.73;100293.44;4959205;28;20105;-55
2022/08/15 03:45:43;;;;;;;6.07;2.70;;;;;;;23.85;46.99;100297.22;4958150;28;20054;-52
2022/08/15 03:48:09;;;;;;;4.40;2.65;;;;;;;23.79;46.90;100287.78;4957084;28;20509;-54
2022/08/15 03:50:34;;;;;;;4.78;2.53;;;;;;;23.81;46.42;100290.34;4957398;28;20100;-52
2022/08/15 03:53:03;;;;;;;5.50;2.88;;;;;;;23.73;46.81;100282.75;4958159;28;20047;-51
2022/08/15 03:55:29;;;;;;;;;;;;;;;24.00;46.11;100287.91;4960249;28;20049;-53
2022/08/15 03:57:56;;;;;;;6.75;3.70;;;;;;;23.68;46.56;100289.91;4959323;28;19933;-52
2022/08/15 04:00:29;;;;;;;7.85;3.20;;;;;;;23.72;47.08;100286.28;4958373;28;20747;-54
2022/08/15 04:03:11;;;;;;;10.98;3.38;;;;;;;23.77;46.81;100284.31;4957462;28;20030;-54
2022/08/15 04:05:38;;;;;;;7.35;3.10;;;;;;;23.64;47.04;100282.19;4956848;28;20047;-54
2022/08/15 04:08:06;;;;;;;6.25;3.15;;;;;;;23.68;46.90;100283.81;4960205;28;20084;-52
2022/08/15 04:10:33;;;;;;;3.73;3.00;;;;;;;23.58;47.22;100292.88;4958817;28;20125;-49
2022/08/15 04:12:58;;;;;;;5.25;3.78;;;;;;;23.63;46.57;100304.97;4958708;28;20047;-53
2022/08/15 04:15:24;;;;;;;5.95;3.15;;;;;;;23.55;47.36;100309.59;4959162;28;20051;-53
2022/08/15 04:17:51;;;;;;;6.80;3.50;;;;;;;23.53;47.01;100309.63;4957042;28;20027;-53
2022/08/15 04:20:17;;;;;;;6.63;3.20;;;;;;;23.46;47.22;100304.66;4955616;28;20042;-54
2022/08/15 04:22:45;;;;;;;5.18;3.03;;;;;;;23.43;47.57;100304.78;4960044;28;20054;-54
2022/08/15 04:25:17;;;;;;;8.17;3.00;;;;;;;23.47;47.16;100301.97;4956273;28;20101;-54
2022/08/15 04:27:42;;;;;;;7.80;3.42;;;;;;;23.38;47.54;100307.53;4959358;28;20228;-53
2022/08/15 04:30:10;;;;;;;4.03;3.40;;;;;;;23.35;47.47;100301.53;4957192;28;20038;-53
2022/08/15 04:32:37;;;;;;;5.22;3.50;;;;;;;23.32;47.64;100313.00;4957468;28;20088;-53
2022/08/15 04:35:03;;;;;;;6.03;3.53;;;;;;;23.33;47.27;100309.44;4957697;28;20762;-54
2022/08/15 04:37:28;;;;;;;6.93;3.50;;;;;;;23.31;47.27;100315.66;4958152;28;20038;-54
2022/08/15 04:39:56;;;;;;;9.18;3.95;;;;;;;23.29;47.71;100316.56;4955941;28;20096;-52
2022/08/15 04:42:24;;;;;;;8.40;3.53;;;;;;;23.26;47.34;100318.44;4955896;28;20062;-54
2022/08/15 04:44:50;;;;;;;7.82;3.58;;;;;;;23.23;47.94;100313.28;4960150;28;20130;-52
2022/08/15 04:47:16;;;;;;;4.80;3.67;;;;;;;23.27;48.02;100317.53;4955396;28;20495;-54
2022/08/15 04:49:42;;;;;;;7.97;3.67;;;;;;;23.21;47.47;100309.84;4955831;28;20042;-53
2022/08/15 04:52:14;;;;;;;9.95;3.90;;;;;;;23.20;48.08;100313.41;4956670;28;20494;-54
2022/08/15 04:54:40;;;;;;;7.32;3.80;;;;;;;23.17;47.53;100314.34;4957608;28;20035;-53
2022/08/15 04:57:08;;;;;;;8.55;4.00;;;;;;;23.13;48.06;100311.88;4957733;28;20031;-53
2022/08/15 04:59:34;;;;;;;10.27;4.38;;;;;;;23.12;48.35;100318.03;4957716;28;20042;-54
2022/08/15 05:02:00;;;;;;;6.57;3.50;;;;;;;23.08;48.63;100313.78;4956146;28;20084;-50
2022/08/15 05:04:25;;;;;;;9.88;3.85;;;;;;;23.16;48.17;100311.78;4957317;28;20039;-53
2022/08/15 05:06:50;;;;;;;9.00;3.63;;;;;;;23.13;48.70;100317.13;4958232;28;20045;-54
2022/08/15 05:09:16;;;;;;;7.75;4.28;;;;;;;23.11;48.49;100319.78;4956786;28;20038;-54
2022/08/15 05:11:41;;;;;;;4.75;3.90;;;;;;;23.07;49.11;100322.56;4957535;28;20027;-52
2022/08/15 05:14:06;;;;;;;11.57;3.85;;;;;;;23.14;48.77;100324.09;4956474;28;20035;-49
2022/08/15 05:16:33;;;;;;;6.65;4.35;;;;;;;23.13;49.26;100322.38;4957136;28;20115;-54
2022/08/15 05:18:58;;;;;;;8.10;4.13;;;;;;;23.08;49.44;100326.91;4957563;28;20026;-54
2022/08/15 05:21:24;;;;;;;6.55;3.58;;;;;;;23.14;49.56;100326.72;4956234;28;20089;-51
2022/08/15 05:23:50;;;;;;;8.30;3.80;;;;;;;23.08;49.87;100334.78;4957568;28;20034;-53
2022/08/15 05:26:15;;;;;;;12.65;4.13;;;;;;;23.04;50.44;100331.38;4959933;28;20038;-54
2022/08/15 05:28:41;;;;;;;5.80;3.72;;;;;;;23.05;49.97;100334.84;4957220;28;20404;-54
2022/08/15 05:31:09;;;;;;;7.60;3.78;;;;;;;23.06;50.66;100326.97;4953698;28;20073;-54
2022/08/15 05:33:35;;;;;;;6.65;3.67;;;;;;;23.11;50.82;100329.41;4956941;28;20475;-54
2022/08/15 05:36:03;;;;;;;7.60;3.80;;;;;;;23.11;50.77;100332.03;4957689;28;20484;-53
2022/08/15 05:38:52;;;;;;;9.25;3.95;;;;;;;23.17;50.83;100332.69;4957817;28;20043;-53
2022/08/15 05:41:32;;;;;;;9.13;4.22;;;;;;;23.18;51.13;100333.59;4958934;28;20034;-54
2022/08/15 05:44:16;;;;;;;6.63;3.80;;;;;;;23.19;51.23;100333.53;4957069;28;20046;-52
2022/08/15 05:46:46;;;;;;;9.18;4.10;;;;;;;23.15;51.54;100337.13;4957777;28;20045;-54
2022/08/15 05:49:33;;;;;;;6.47;4.00;;;;;;;23.24;51.71;100359.63;4959015;28;20027;-55
2022/08/15 05:52:07;;;;;;;9.93;4.30;;;;;;;23.21;52.13;100349.19;4956679;28;20035;-53
2022/08/15 05:54:50;;;;;;;5.82;3.78;;;;;;;23.14;52.28;100352.94;4958756;28;20037;-51
2022/08/15 05:57:26;;;;;;;5.78;3.70;;;;;;;23.14;52.94;100356.41;4957471;28;20624;-51
2022/08/15 05:59:57;;;;;;;5.80;3.60;;;;;;;23.14;53.02;100345.06;4959906;28;20470;-53
2022/08/15 06:02:36;;;;;;;9.93;3.97;;;;;;;23.16;53.06;100353.72;4957791;28;20150;-51
2022/08/15 06:05:17;;;;;;;11.10;4.20;;;;;;;23.13;53.36;100345.97;4959148;28;20031;-54
2022/08/15 06:07:46;;;;;;;10.25;4.00;;;;;;;23.16;53.44;100351.97;4958035;28;20031;-54
2022/08/15 06:10:30;;;;;;;13.27;4.30;;;;;;;23.19;53.52;100348.41;4957112;28;20813;-52
2022/08/15 06:13:17;;;;;;;8.95;3.90;;;;;;;23.23;53.67;100355.25;4957618;28;20088;-51
2022/08/15 06:16:16;;;;;;;7.18;3.35;;;;;;;23.21;53.99;100355.31;4959744;28;20027;-53
2022/08/15 06:18:42;;;;;;;7.53;3.75;;;;;;;23.14;55.00;100351.16;4954105;28;20149;-54
2022/08/15 06:21:21;;;;;;;6.65;4.05;;;;;;;23.19;54.58;100353.66;4953979;28;20074;-50
2022/08/15 06:24:29;;;;;;;7.13;3.60;;;;;;;23.20;54.53;100363.22;4957727;28;20043;-52
2022/08/15 06:27:05;;;;;;;9.63;3.80;;;;;;;23.18;55.18;100360.66;4959842;28;20030;-54
2022/08/15 06:29:40;;;;;;;9.50;3.70;;;;;;;23.20;55.28;100361.47;4953884;28;20430;-53
2022/08/15 06:32:25;;;;;;;6.40;3.50;;;;;;;23.23;55.52;100371.84;4956023;28;20031;-54
2022/08/15 06:34:50;;;;;;;7.13;3.70;;;;;;;23.23;56.40;100366.59;4957055;28;20046;-54
2022/08/15 06:37:24;;;;;;;8.23;3.65;;;;;;;23.29;56.34;100361.16;4952410;28;20034;-54
2022/08/15 06:40:07;;;;;;;6.07;3.60;;;;;;;23.35;56.02;100354.84;4957839;28;20031;-51
2022/08/15 06:42:37;;;;;;;8.82;4.00;;;;;;;23.37;55.95;100358.31;4953874;28;20062;-54
2022/08/15 06:45:25;;;;;;;10.00;3.83;;;;;;;23.39;55.95;100355.63;4956176;28;20038;-54
2022/08/15 06:47:59;;;;;;;10.05;3.80;;;;;;;23.36;57.54;100348.72;4956181;28;20508;-53
2022/08/15 06:50:33;;;;;;;8.52;3.67;;;;;;;23.40;57.28;100362.56;4957508;28;20536;-54
2022/08/15 06:53:17;;;;;;;9.88;4.10;;;;;;;23.39;57.00;100363.50;4953568;28;20038;-54
2022/08/15 06:55:52;;;;;;;11.10;3.88;;;;;;;23.42;56.66;100360.75;4958868;28;20633;-51
2022/08/15 06:58:33;;;;;;;7.55;3.72;;;;;;;23.40;56.71;100362.56;4956766;28;20035;-54
2022/08/15 07:01:09;;;;;;;7.72;3.80;;;;;;;23.41;57.29;100373.00;4954941;28;20094;-55
2022/08/15 07:04:25;;;;;;;9.43;4.03;;;;;;;23.50;57.11;100364.84;4957860;28;20057;-54
2022/08/15 07:06:58;;;;;;;7.53;4.18;;;;;;;23.44;57.87;100366.81;4932609;28;20047;-55
2022/08/15 07:09:36;;;;;;;8.95;4.53;;;;;;;23.42;57.68;100366.88;4956094;28;20105;-57
2022/08/15 07:12:24;;;;;;;10.27;4.17;;;;;;;23.50;57.54;100366.63;4957520;28;20379;-57
2022/08/15 07:15:00;;;;;;;;;;;;;;;23.62;56.91;100368.03;4955886;28;20037;-55
2022/08/15 07:17:50;;;;;;;12.52;4.20;;;;;;;23.56;57.75;100369.03;4958043;28;19914;-53
2022/08/15 07:20:17;;;;;;;7.93;4.60;;;;;;;23.53;58.31;100363.88;4950809;28;20491;-54
2022/08/15 07:22:42;;;;;;;12.73;4.18;;;;;;;23.53;58.56;100345.50;4957320;28;20157;-54
2022/08/15 07:25:14;;;;;;;8.00;4.50;;;;;;;23.62;58.12;100347.88;4958329;28;20042;-54
2022/08/15 07:27:40;;;;;;;6.78;4.30;;;;;;;23.75;58.23;100353.56;4958171;28;20035;-54
2022/08/15 07:30:20;;;;;;;5.97;4.20;;;;;;;23.90;57.63;100358.25;4955010;28;20038;-50
2022/08/15 07:32:51;;;;;;;10.45;4.78;;;;;;;23.99;58.33;100363.22;4957336;28;20046;-51
2022/08/15 07:35:23;;;;;;;12.25;4.80;;;;;;;24.02;59.01;100360.47;4955741;28;20394;-54
2022/08/15 07:37:48;;;;;;;10.80;4.90;;;;;;;24.06;58.73;100356.81;4959221;28;20038;-51
2022/08/15 07:40:26;;;;;;;9.15;4.90;;;;;;;24.11;58.03;100356.66;4954086;28;20044;-49
2022/08/15 07:42:52;;;;;;;6.75;4.40;;;;;;;24.10;59.28;100359.34;4960516;28;20141;-52
2022/08/15 07:45:19;;;;;;;8.88;5.38;;;;;;;24.12;58.83;100362.78;4962272;28;20118;-53
2022/08/15 07:48:02;;;;;;;9.73;5.38;;;;;;;24.17;58.50;100358.22;4961176;28;20084;-56
2022/08/15 07:50:41;;;;;;;8.82;5.00;;;;;;;24.20;58.48;100365.97;4956711;28;20092;-51
2022/08/15 07:53:16;;;;;;;;;;;;;;;24.27;57.32;100365.72;4958791;28;20411;-54
2022/08/15 07:56:04;;;;;;;10.00;5.80;;;;;;;24.10;59.22;100373.34;4962462;28;19922;-54
2022/08/15 07:58:32;;;;;;;10.98;5.45;;;;;;;24.18;59.12;100379.16;4961855;28;20130;-54
2022/08/15 08:01:26;;;;;;;12.77;6.00;;;;;;;24.18;59.34;100373.91;4958316;28;20027;-50
2022/08/15 08:04:11;;;;;;;12.90;5.63;;;;;;;24.20;59.38;100382.59;4963925;28;20041;-54
2022/08/15 08:06:49;;;;;;;11.32;6.50;;;;;;;24.24;58.73;100372.84;4961439;28;20026;-55
2022/08/15 08:09:44;;;;;;;8.60;5.93;;;;;;;24.29;58.54;100378.78;4963086;28;20034;-53
2022/08/15 08:12:32;;;;;;;12.30;6.60;;;;;;;24.29;58.54;100386.66;4965937;28;20118;-53
2022/08/15 08:15:10;;;;;;;11.20;7.03;;;;;;;24.29;58.83;100376.16;4976507;28;20037;-54
2022/08/15 08:17:55;;;;;;;11.35;6.75;;;;;;;24.37;58.93;100381.16;4962087;28;20031;-54
2022/08/15 08:20:26;;;;;;;15.70;7.22;;;;;;;24.42;58.51;100382.72;4961674;28;20030;-54
2022/08/15 08:23:04;;;;;;;11.30;6.35;;;;;;;24.47;58.67;100382.56;4962946;28;20050;-55
2022/08/15 08:25:42;;;;;;;9.70;7.10;;;;;;;24.53;58.17;100388.44;4963149;28;20491;-53
2022/08/15 08:28:35;;;;;;;10.88;7.00;;;;;;;24.53;57.63;100379.69;4960870;28;20926;-52
2022/08/15 08:31:30;;;;;;;9.90;6.22;;;;;;;24.58;57.86;100383.88;4965498;28;20035;-53
2022/08/15 08:34:05;;;;;;;9.75;6.10;;;;;;;24.56;58.00;100390.94;4959965;28;20505;-53
2022/08/15 08:36:40;;;;;;;13.40;6.15;;;;;;;24.57;59.03;100391.78;4963101;28;20070;-54
2022/08/15 08:39:05;;;;;;;24.80;8.00;;;;;;;24.57;58.94;100384.78;4963722;28;20048;-54
2022/08/15 08:41:46;;;;;;;9.77;6.10;;;;;;;24.57;59.23;100386.53;4974287;28;20483;-52
2022/08/15 08:44:27;;;;;;;8.70;5.70;;;;;;;24.63;58.02;100386.31;4967655;28;20503;-52
2022/08/15 08:47:02;;;;;;;9.20;5.70;;;;;;;24.56;58.40;100385.69;4962393;28;20030;-55
2022/08/15 08:49:39;;;;;;;12.43;5.60;;;;;;;24.57;58.64;100392.69;4961140;28;20074;-54
2022/08/15 08:52:27;;;;;;;8.95;5.97;;;;;;;24.60;58.59;100382.03;4963079;28;20505;-55
2022/08/15 08:55:16;;;;;;;8.30;5.60;;;;;;;24.56;58.48;100387.44;4964361;28;20070;-54
2022/08/15 08:58:04;;;;;;;8.88;5.47;;;;;;;24.58;58.58;100394.38;4963384;28;20065;-51
2022/08/15 09:00:43;;;;;;;10.75;6.22;;;;;;;24.56;58.17;100392.72;4960169;28;20498;-54
2022/08/15 09:03:14;;;;;;;10.00;5.85;;;;;;;24.49;58.78;100394.72;4965726;28;20034;-54
2022/08/15 09:06:09;;;;;;;50.67;7.22;;;;;;;24.56;58.52;100396.19;4961266;28;20186;-54
2022/08/15 09:08:52;;;;;;;532.40;32.35;;;;;;;24.57;59.50;100391.78;4957558;28;20047;-52
2022/08/15 09:11:33;;;;;;;379.75;25.60;;;;;;;24.55;59.38;100399.75;4961258;28;20053;-55
2022/08/15 09:14:05;;;;;;;33.55;7.35;;;;;;;24.53;59.98;100398.94;4965644;28;20479;-54
2022/08/15 09:16:38;;;;;;;66.55;8.35;;;;;;;24.55;60.48;100405.00;4962411;28;20126;-54
2022/08/15 09:19:15;;;;;;;14.05;5.95;;;;;;;24.53;60.17;100406.84;4962102;28;20114;-54
2022/08/15 09:21:42;;;;;;;10.40;5.85;;;;;;;24.56;60.25;100409.34;4960687;28;20058;-54
2022/08/15 09:24:08;;;;;;;15.93;5.72;;;;;;;24.54;61.69;100408.53;4960982;28;20039;-54
2022/08/15 09:26:40;;;;;;;9.48;5.53;;;;;;;24.54;61.51;100405.91;4961133;28;20038;-54
2022/08/15 09:29:14;;;;;;;7.68;5.40;;;;;;;24.53;60.92;100406.84;4960083;28;20030;-51
2022/08/15 09:31:41;;;;;;;9.77;5.70;;;;;;;24.52;62.55;100402.50;4956665;28;20429;-49
2022/08/15 09:34:37;;;;;;;10.48;5.80;;;;;;;24.58;61.86;100399.66;4959779;28;20050;-53
2022/08/15 09:37:33;;;;;;;6.95;5.22;;;;;;;24.63;61.34;100412.59;4960295;28;20465;-52
2022/08/15 09:40:01;;;;;;;7.53;5.80;;;;;;;24.54;63.70;100418.19;4960777;28;20034;-54
2022/08/15 09:42:55;;;;;;;9.15;5.82;;;;;;;24.60;63.15;100412.72;4965369;28;20098;-54
2022/08/15 09:45:34;;;;;;;7.97;5.65;;;;;;;24.51;64.31;100408.66;4962597;28;20419;-52
2022/08/15 09:48:28;;;;;;;8.90;5.85;;;;;;;24.57;62.22;100405.81;4958081;28;20706;-55
2022/08/15 09:51:12;;;;;;;10.70;5.60;;;;;;;24.56;62.38;100401.44;4958941;28;20031;-54
2022/08/15 09:53:57;;;;;;;10.95;5.72;;;;;;;24.62;62.06;100400.38;4957814;28;20034;-52
2022/08/15 09:56:25;;;;;;;9.25;5.28;;;;;;;24.68;62.06;100404.53;4956721;28;20497;-52
2022/08/15 09:59:15;;;;;;;17.63;5.30;;;;;;;24.75;61.19;100404.25;4959942;28;20525;-54
2022/08/15 10:01:50;;;;;;;10.02;5.45;;;;;;;24.78;61.00;100403.28;4958405;28;20041;-52
2022/08/15 10:04:19;;;;;;;9.18;5.25;;;;;;;24.83;60.96;100406.59;4958787;28;20042;-50
2022/08/15 10:06:53;;;;;;;14.45;5.90;;;;;;;24.87;60.84;100416.06;4959081;28;20023;-55
2022/08/15 10:09:27;;;;;;;9.55;5.57;;;;;;;24.93;60.09;100412.34;4957209;28;20030;-52
2022/08/15 10:11:56;;;;;;;9.23;4.80;;;;;;;25.01;60.27;100416.41;4958071;28;20046;-55
2022/08/15 10:14:21;;;;;;;;;;;;;;;25.13;58.96;100417.75;4958087;28;20447;-51
2022/08/15 10:16:58;;;;;;;11.23;5.70;;;;;;;25.07;58.87;100410.09;4956352;28;20008;-54
2022/08/15 10:19:27;;;;;;;7.97;5.57;;;;;;;25.00;58.39;100405.97;4962140;28;20293;-59
2022/08/15 10:21:58;;;;;;;10.18;4.90;;;;;;;25.04;59.25;100407.53;4958234;28;20133;-50
2022/08/15 10:24:24;;;;;;;8.75;4.90;;;;;;;25.07;59.00;100402.22;4956907;28;20402;-54
2022/08/15 10:27:07;;;;;;;9.68;5.20;;;;;;;25.13;58.93;100405.44;4956037;28;20034;-51
2022/08/15 10:29:49;;;;;;;9.57;4.60;;;;;;;25.16;59.40;100414.97;4956568;28;20080;-54
2022/08/15 10:32:40;;;;;;;7.10;4.82;;;;;;;25.20;58.85;100407.84;4957051;28;20033;-53
2022/08/15 10:35:23;;;;;;;7.35;4.90;;;;;;;25.20;59.02;100416.59;4958911;28;20045;-53
2022/08/15 10:38:00;;;;;;;10.23;4.90;;;;;;;25.21;57.89;100420.06;4955629;28;20050;-51
2022/08/15 10:40:47;;;;;;;12.23;4.97;;;;;;;25.20;58.05;100418.38;4958831;28;20037;-53
2022/08/15 10:43:51;;;;;;;10.10;4.80;;;;;;;25.22;58.15;100419.16;4957970;28;20038;-53
2022/08/15 10:46:35;;;;;;;8.70;4.80;;;;;;;25.22;58.04;100421.78;4959762;28;20034;-55
2022/08/15 10:49:09;;;;;;;9.27;4.75;;;;;;;25.14;58.47;100420.31;4957845;28;20037;-53
2022/08/15 10:52:01;;;;;;;6.90;4.43;;;;;;;25.22;57.82;100417.38;4959220;28;20503;-52
2022/08/15 10:54:54;;;;;;;8.02;4.85;;;;;;;25.25;57.74;100422.53;4957202;28;20410;-54
2022/08/15 10:57:21;;;;;;;7.55;4.28;;;;;;;25.24;58.40;100420.81;4956600;28;20114;-52
2022/08/15 10:59:51;;;;;;;9.77;4.95;;;;;;;25.27;58.47;100428.59;4959992;28;20049;-53
2022/08/15 11:02:49;;;;;;;9.00;4.50;;;;;;;25.29;58.30;100432.00;5041239;28;20056;-52
2022/08/15 11:05:19;;;;;;;8.68;5.50;;;;;;;25.25;58.22;100426.94;4958853;28;20042;-52
2022/08/15 11:07:55;;;;;;;8.07;5.13;;;;;;;25.27;57.56;100425.94;4958294;28;20121;-53
2022/08/15 11:10:23;;;;;;;8.80;4.60;;;;;;;25.18;58.65;100425.44;4954766;28;20038;-53
2022/08/15 11:12:54;;;;;;;8.63;4.65;;;;;;;25.19;58.26;100428.03;4955221;28;20109;-49
2022/08/15 11:15:25;;;;;;;6.72;4.70;;;;;;;25.18;58.99;100428.06;4959492;28;20483;-54
2022/08/15 11:18:03;;;;;;;7.25;4.47;;;;;;;25.20;58.35;100434.16;4958040;28;20027;-56
2022/08/15 11:20:37;;;;;;;9.73;4.65;;;;;;;25.17;58.00;100424.59;4958115;28;20046;-55
2022/08/15 11:23:03;;;;;;;7.35;4.28;;;;;;;25.12;58.06;100432.69;4959461;28;20529;-53
2022/08/15 11:25:32;;;;;;;10.43;4.40;;;;;;;25.10;57.59;100431.00;4958475;28;20391;-52
2022/08/15 11:28:04;;;;;;;5.25;4.22;;;;;;;25.09;56.93;100426.66;4956566;28;20543;-53
2022/08/15 11:30:33;;;;;;;10.27;4.10;;;;;;;25.07;58.36;100426.75;4965028;28;20114;-52
2022/08/15 11:33:19;;;;;;;9.02;4.45;;;;;;;25.12;57.61;100430.06;4962735;28;20116;-54
2022/08/15 11:35:45;;;;;;;6.53;4.03;;;;;;;25.03;58.34;100427.72;4960820;28;20023;-54
2022/08/15 11:38:16;;;;;;;6.80;4.30;;;;;;;25.05;57.46;100430.31;4961746;28;20038;-54
2022/08/15 11:40:42;;;;;;;9.63;4.45;;;;;;;25.08;57.61;100431.06;4962325;28;20062;-54
2022/08/15 11:43:15;;;;;;;8.88;4.18;;;;;;;25.08;57.66;100432.84;4963404;28;20058;-54
2022/08/15 11:45:46;;;;;;;9.35;4.25;;;;;;;25.11;58.33;100435.34;4962652;28;20474;-53
2022/08/15 11:48:14;;;;;;;8.70;4.57;;;;;;;25.14;58.36;100435.25;4965954;28;20019;-55
2022/08/15 11:50:53;;;;;;;10.85;4.70;;;;;;;25.18;58.54;100438.59;4966284;28;20039;-50
2022/08/15 11:53:19;;;;;;;6.30;4.40;;;;;;;25.26;58.34;100441.81;4962987;28;20038;-54
2022/08/15 11:55:46;;;;;;;10.48;4.70;;;;;;;25.26;58.48;100440.03;4964867;28;20039;-53
2022/08/15 11:58:11;;;;;;;6.90;3.92;;;;;;;25.37;59.60;100440.47;4964260;28;20027;-51